createdAt,value
2022-09-28T00:03:32.073Z,5.30
2022-09-28T00:08:35.992Z,5.57
2022-09-28T00:13:38.866Z,5.40
2022-09-28T00:18:43.602Z,5.32
2022-09-28T00:24:09.659Z,5.50
2022-09-28T00:29:21.118Z,5.60
2022-09-28T00:34:25.363Z,5.13
2022-09-28T00:39:28.436Z,5.70
2022-09-28T00:44:43.871Z,5.25
2022-09-28T00:49:52.045Z,5.28
2022-09-28T00:54:57.149Z,5.05
2022-09-28T01:00:01.590Z,5.25
2022-09-28T01:05:08.277Z,5.55
2022-09-28T01:10:11.563Z,5.50
2022-09-28T01:15:15.591Z,5.57
2022-09-28T01:20:37.484Z,5.72
2022-09-28T01:25:46.781Z,5.63
2022-09-28T01:31:03.287Z,6.22
2022-09-28T01:36:10.870Z,5.70
2022-09-28T01:46:25.580Z,6.00
2022-09-28T01:51:33.425Z,6.22
2022-09-28T01:56:41.302Z,5.95
2022-09-28T02:01:52.880Z,6.57
2022-09-28T02:07:01.175Z,6.78
2022-09-28T02:12:11.912Z,6.20
2022-09-28T02:17:17.179Z,6.97
2022-09-28T02:27:42.548Z,7.28
2022-09-28T02:32:51.060Z,7.80
2022-09-28T02:37:55.994Z,8.20
2022-09-28T02:43:07.740Z,7.75
2022-09-28T02:48:41.308Z,7.88
2022-09-28T02:54:01.820Z,7.03
2022-09-28T02:59:14.588Z,7.25
2022-09-28T03:04:27.734Z,7.65
2022-09-28T03:09:35.911Z,7.07
2022-09-28T03:14:39.057Z,8.48
2022-09-28T03:19:44.148Z,9.70
2022-09-28T03:24:46.949Z,9.15
2022-09-28T03:29:49.966Z,8.75
2022-09-28T03:34:54.526Z,9.02
2022-09-28T03:39:57.320Z,9.93
2022-09-28T03:45:00.132Z,8.75
2022-09-28T03:50:04.590Z,9.93
2022-09-28T03:55:07.975Z,9.40
2022-09-28T04:00:11.916Z,9.65
2022-09-28T04:05:18.991Z,9.73
2022-09-28T04:10:22.067Z,10.18
2022-09-28T04:15:25.415Z,9.95
2022-09-28T04:20:29.956Z,10.88
2022-09-28T04:25:39.627Z,9.85
2022-09-28T04:30:42.799Z,9.93
2022-09-28T04:35:47.095Z,11.30
2022-09-28T04:40:50.512Z,12.30
2022-09-28T04:45:53.413Z,11.40
2022-09-28T04:51:01.677Z,11.70
2022-09-28T04:56:07.011Z,13.68
2022-09-28T05:01:13.581Z,16.35
2022-09-28T05:06:32.989Z,16.05
2022-09-28T05:11:40.650Z,15.13
2022-09-28T05:16:48.614Z,16.87
2022-09-28T05:22:06.113Z,14.35
2022-09-28T05:27:15.830Z,16.10
2022-09-28T05:32:21.885Z,15.38
2022-09-28T05:37:49.387Z,15.35
2022-09-28T05:42:52.530Z,16.35
2022-09-28T05:47:55.400Z,17.35
2022-09-28T05:53:01.681Z,18.10
2022-09-28T05:58:19.346Z,18.20
2022-09-28T06:03:22.540Z,17.38
2022-09-28T06:08:26.839Z,15.63
2022-09-28T06:13:38.614Z,16.23
2022-09-28T06:18:42.347Z,17.30
2022-09-28T06:23:49.651Z,16.20
2022-09-28T06:28:54.215Z,16.30
2022-09-28T06:33:57.334Z,17.73
2022-09-28T06:39:01.570Z,17.98
2022-09-28T06:44:05.004Z,17.48
2022-09-28T06:49:30.293Z,16.55
2022-09-28T06:54:53.120Z,16.83
2022-09-28T07:00:06.085Z,16.67
2022-09-28T07:05:13.527Z,17.20
2022-09-28T07:10:36.027Z,17.08
2022-09-28T07:15:57.370Z,16.38
2022-09-28T07:21:02.805Z,16.85
2022-09-28T07:26:09.381Z,18.38
2022-09-28T07:36:39.101Z,17.17
2022-09-28T07:41:44.256Z,17.83
2022-09-28T07:46:47.372Z,17.40
2022-09-28T07:51:57.553Z,16.00
2022-09-28T07:57:15.239Z,17.38
2022-09-28T08:02:44.694Z,17.23
2022-09-28T08:07:53.041Z,16.90
2022-09-28T08:13:02.032Z,15.85
2022-09-28T08:18:26.280Z,16.75
2022-09-28T08:23:29.153Z,17.27
2022-09-28T08:28:34.288Z,18.20
2022-09-28T08:33:43.120Z,16.65
2022-09-28T08:39:09.345Z,16.02
2022-09-28T08:50:11.107Z,17.95
2022-09-28T08:55:37.841Z,16.00
2022-09-28T09:06:04.442Z,17.35
2022-09-28T09:11:43.803Z,17.45
2022-09-28T09:17:00.381Z,17.25
2022-09-28T09:22:40.672Z,17.17
2022-09-28T09:27:59.715Z,18.48
2022-09-28T09:33:35.794Z,16.50
2022-09-28T09:39:08.105Z,16.80
2022-09-28T09:44:48.802Z,17.08
2022-09-28T09:50:25.253Z,16.90
2022-09-28T09:55:35.215Z,16.05
2022-09-28T10:01:06.830Z,15.48
2022-09-28T10:06:40.212Z,15.70
2022-09-28T10:11:47.710Z,16.02
2022-09-28T10:16:53.418Z,14.53
2022-09-28T10:22:24.212Z,12.05
2022-09-28T10:27:32.681Z,10.23
2022-09-28T10:32:41.323Z,8.50
2022-09-28T10:37:52.253Z,7.75
2022-09-28T10:43:22.876Z,6.32
2022-09-28T10:48:29.463Z,5.47
2022-09-28T10:53:36.963Z,5.63
2022-09-28T10:58:42.116Z,6.10
2022-09-28T11:03:53.304Z,6.50
2022-09-28T11:08:59.564Z,5.30
2022-09-28T11:14:04.686Z,5.30
2022-09-28T11:19:29.432Z,5.68
2022-09-28T11:24:33.996Z,5.20
2022-09-28T11:29:42.745Z,5.10
2022-09-28T11:35:17.461Z,6.10
2022-09-28T11:40:31.480Z,6.28
2022-09-28T11:45:47.694Z,4.90
2022-09-28T11:50:53.297Z,4.68
2022-09-28T11:56:08.665Z,7.40
2022-09-28T12:01:23.115Z,5.63
2022-09-28T12:06:53.329Z,4.80
2022-09-28T12:12:05.198Z,5.90
2022-09-28T12:17:26.577Z,4.07
2022-09-28T12:22:36.375Z,3.83
2022-09-28T12:27:47.256Z,5.13
2022-09-28T12:32:56.351Z,4.32
2022-09-28T12:38:18.222Z,6.18
2022-09-28T12:43:57.593Z,3.83
2022-09-28T12:54:51.664Z,12.98
2022-09-28T13:00:03.717Z,6.18
2022-09-28T13:05:25.273Z,4.28
2022-09-28T13:10:34.712Z,8.13
2022-09-28T13:15:44.980Z,4.68
2022-09-28T13:21:04.836Z,3.60
2022-09-28T13:26:17.847Z,5.18
2022-09-28T13:31:29.151Z,3.20
2022-09-28T13:36:39.293Z,28.30
2022-09-28T13:41:50.574Z,2.40
2022-09-28T13:47:20.525Z,2.65
2022-09-28T13:52:35.677Z,2.85
2022-09-28T13:57:46.316Z,2.90
2022-09-28T14:02:58.778Z,2.80
2022-09-28T14:08:30.997Z,2.72
2022-09-28T14:14:01.339Z,3.17
2022-09-28T14:19:09.148Z,3.45
2022-09-28T14:24:30.254Z,3.08
2022-09-28T14:29:36.486Z,2.60
2022-09-28T14:34:44.031Z,3.30
2022-09-28T14:40:05.776Z,2.50
2022-09-28T14:45:35.820Z,3.10
2022-09-28T14:50:40.391Z,2.17
2022-09-28T14:55:51.138Z,1.88
2022-09-28T15:01:01.597Z,2.25
2022-09-28T15:06:06.016Z,2.50
2022-09-28T15:11:16.683Z,2.83
2022-09-28T15:16:24.809Z,2.88
2022-09-28T15:21:36.354Z,3.15
2022-09-28T15:26:39.066Z,3.70
2022-09-28T15:31:41.927Z,4.30
2022-09-28T15:36:47.109Z,3.45
2022-09-28T15:41:51.637Z,4.03
2022-09-28T15:47:09.451Z,5.45
2022-09-28T15:52:36.430Z,4.60
2022-09-28T15:57:41.089Z,5.32
2022-09-28T16:03:00.291Z,4.53
2022-09-28T16:08:06.010Z,4.90
2022-09-28T16:13:21.080Z,5.00
2022-09-28T16:18:25.474Z,5.05
2022-09-28T16:23:33.244Z,5.18
2022-09-28T16:28:55.879Z,6.20
2022-09-28T16:34:02.242Z,7.68
2022-09-28T16:39:06.341Z,13.57
2022-09-28T16:44:17.150Z,8.55
2022-09-28T16:49:20.035Z,9.23
2022-09-28T16:54:43.115Z,8.95
2022-09-28T16:59:45.875Z,9.20
2022-09-28T17:04:48.664Z,10.80
2022-09-28T17:09:52.818Z,13.50
2022-09-28T17:14:56.442Z,11.88
2022-09-28T17:19:59.387Z,12.40
2022-09-28T17:25:03.572Z,14.63
2022-09-28T17:30:07.735Z,12.65
2022-09-28T17:35:24.275Z,15.82
2022-09-28T17:40:31.470Z,15.32
2022-09-28T17:45:39.461Z,15.13
2022-09-28T17:50:46.669Z,16.25
2022-09-28T17:55:51.530Z,16.52
2022-09-28T18:00:54.456Z,15.13
2022-09-28T18:06:03.333Z,16.10
2022-09-28T18:11:07.691Z,15.73
2022-09-28T18:16:11.003Z,14.77
2022-09-28T18:21:17.898Z,16.35
2022-09-28T18:26:22.244Z,14.70
2022-09-28T18:31:25.494Z,15.07
2022-09-28T18:36:33.234Z,15.60
2022-09-28T18:41:37.743Z,14.70
2022-09-28T18:46:42.947Z,14.95
2022-09-28T18:51:45.937Z,15.02
2022-09-28T18:56:51.257Z,17.33
2022-09-28T19:01:54.367Z,16.00
2022-09-28T19:06:57.218Z,16.75
2022-09-28T19:12:01.953Z,15.25
2022-09-28T19:17:04.899Z,15.60
2022-09-28T19:22:07.646Z,16.25
2022-09-28T19:27:12.169Z,16.48
2022-09-28T19:32:15.354Z,17.60
2022-09-28T19:37:18.173Z,15.05
2022-09-28T19:42:22.553Z,15.05
2022-09-28T19:47:25.618Z,15.65
2022-09-28T19:52:28.515Z,16.58
2022-09-28T19:57:34.211Z,16.02
2022-09-28T20:02:37.142Z,16.13
2022-09-28T20:07:40.053Z,16.42
2022-09-28T20:12:44.437Z,16.88
2022-09-28T20:17:47.542Z,15.60
2022-09-28T20:22:50.454Z,16.42
2022-09-28T20:27:55.139Z,15.93
2022-09-28T20:32:58.102Z,15.98
2022-09-28T20:38:07.882Z,16.60
2022-09-28T20:43:12.348Z,19.45
2022-09-28T20:48:15.292Z,17.38
2022-09-28T20:53:18.121Z,15.32
2022-09-28T20:58:22.264Z,14.25
2022-09-28T21:03:25.356Z,13.98
2022-09-28T21:08:28.189Z,11.90
2022-09-28T21:13:32.332Z,12.27
2022-09-28T21:18:35.149Z,12.20
2022-09-28T21:23:38.100Z,13.68
2022-09-28T21:28:44.620Z,11.13
2022-09-28T21:33:47.573Z,11.15
2022-09-28T21:38:50.423Z,11.15
2022-09-28T21:43:54.798Z,11.88
2022-09-28T21:48:57.573Z,10.93
2022-09-28T21:54:00.379Z,12.75
2022-09-28T21:59:04.595Z,11.00
2022-09-28T22:04:07.353Z,9.68
2022-09-28T22:09:10.166Z,9.63
2022-09-28T22:14:14.607Z,10.25
2022-09-28T22:19:17.640Z,10.27
2022-09-28T22:24:20.604Z,9.68
2022-09-28T22:29:24.918Z,9.63
2022-09-28T22:34:30.638Z,10.20
2022-09-28T22:39:37.472Z,9.90
2022-09-28T22:44:42.442Z,10.73
2022-09-28T22:49:45.173Z,10.35
2022-09-28T22:54:51.136Z,10.32
2022-09-28T22:59:55.258Z,10.70
2022-09-28T23:04:57.973Z,10.65
2022-09-28T23:10:00.699Z,10.25
2022-09-28T23:15:05.728Z,11.20
2022-09-28T23:20:09.569Z,11.18
2022-09-28T23:25:12.280Z,10.63
2022-09-28T23:30:18.180Z,11.18
2022-09-28T23:35:21.163Z,10.90
2022-09-28T23:40:24.034Z,11.15
2022-09-28T23:45:28.202Z,11.73
2022-09-28T23:50:31.190Z,11.73
2022-09-28T23:55:35.042Z,10.73
